Time;durP1;ratioP1;P1;durP2;ratioP2;P2;SDS_P1;SDS_P2;PMS_P1;PMS_P2;Temp;Humidity;BMP_temperature;BMP_pressure;BME280_temperature;BME280_humidity;BME280_pressure;Samples;Min_cycle;Max_cycle;Signal;HPM_P1;HPM_P2
2021/10/05 00:01:05;;;;;;;15.88;9.00;;;;;;;11.13;100.00;98611.59;5033962;28;20442;-68
2021/10/05 00:03:30;;;;;;;12.85;8.63;;;;;;;11.12;100.00;98604.50;5032315;28;20104;-67
2021/10/05 00:05:55;;;;;;;12.52;7.90;;;;;;;11.17;100.00;98610.13;5033992;28;20056;-68
2021/10/05 00:08:21;;;;;;;14.45;8.73;;;;;;;11.14;100.00;98613.25;5032569;28;20532;-68
2021/10/05 00:10:46;;;;;;;12.57;8.82;;;;;;;11.15;100.00;98612.19;5031163;28;20018;-68
2021/10/05 00:13:11;;;;;;;11.52;8.52;;;;;;;11.11;100.00;98613.69;5031885;28;20550;-68
2021/10/05 00:15:37;;;;;;;12.68;8.70;;;;;;;11.10;100.00;98616.59;5034190;28;20395;-68
2021/10/05 00:18:02;;;;;;;12.35;9.18;;;;;;;11.22;100.00;98623.03;5033429;28;20021;-68
2021/10/05 00:20:28;;;;;;;12.35;8.43;;;;;;;11.15;100.00;98619.50;5029834;28;20071;-68
2021/10/05 00:22:53;;;;;;;16.77;8.70;;;;;;;11.14;100.00;98621.38;5033456;28;20070;-68
2021/10/05 00:25:19;;;;;;;11.25;6.80;;;;;;;11.19;100.00;98624.28;5032142;28;20656;-68
2021/10/05 00:27:44;;;;;;;9.02;6.10;;;;;;;11.06;100.00;98615.38;5033099;28;20032;-68
2021/10/05 00:30:10;;;;;;;8.27;6.15;;;;;;;11.00;100.00;98621.59;5032955;28;20029;-68
2021/10/05 00:32:35;;;;;;;12.88;6.85;;;;;;;11.00;100.00;98611.59;5033416;28;20080;-68
2021/10/05 00:35:01;;;;;;;10.45;6.10;;;;;;;10.96;100.00;98603.06;5022462;28;20037;-68
2021/10/05 00:37:26;;;;;;;11.32;6.35;;;;;;;11.00;100.00;98602.66;5033028;28;20032;-68
2021/10/05 00:39:51;;;;;;;11.05;6.18;;;;;;;11.01;100.00;98588.91;5031309;28;20017;-68
2021/10/05 00:42:17;;;;;;;13.00;7.22;;;;;;;11.03;100.00;98572.44;5033586;28;20399;-68
2021/10/05 00:44:43;;;;;;;10.57;6.40;;;;;;;11.02;100.00;98574.31;5033319;28;20044;-68
2021/10/05 00:47:11;;;;;;;11.52;6.68;;;;;;;11.01;100.00;98569.97;5034020;28;20018;-68
2021/10/05 00:49:38;;;;;;;11.60;6.47;;;;;;;11.01;100.00;98575.38;5032065;28;20036;-68
2021/10/05 00:52:05;;;;;;;7.50;5.97;;;;;;;11.04;100.00;98566.84;5033090;28;20032;-68
2021/10/05 00:54:32;;;;;;;8.60;6.28;;;;;;;11.15;100.00;98568.03;5031902;28;20542;-68
2021/10/05 00:56:58;;;;;;;12.32;6.68;;;;;;;11.08;100.00;98549.13;5013645;28;20121;-68
2021/10/05 00:59:24;;;;;;;8.60;6.45;;;;;;;11.10;100.00;98541.59;5014504;28;20105;-68
2021/10/05 01:01:49;;;;;;;10.50;6.78;;;;;;;11.07;100.00;98541.22;5033167;28;20025;-67
2021/10/05 01:04:15;;;;;;;10.52;6.05;;;;;;;10.98;100.00;98548.75;5033474;28;20471;-67
2021/10/05 01:06:47;;;;;;;9.43;6.68;;;;;;;11.13;100.00;98553.88;5032254;28;20072;-68
2021/10/05 01:09:14;;;;;;;11.48;7.88;;;;;;;11.06;100.00;98539.56;5027423;28;20079;-68
2021/10/05 01:11:39;;;;;;;9.02;6.60;;;;;;;11.01;100.00;98518.53;5032787;28;20076;-68
2021/10/05 01:14:04;;;;;;;10.00;7.68;;;;;;;11.03;100.00;98519.16;5033886;28;20030;-68
2021/10/05 01:16:30;;;;;;;10.52;6.97;;;;;;;10.91;100.00;98510.03;5033355;28;20053;-68
2021/10/05 01:18:55;;;;;;;10.13;7.22;;;;;;;10.92;100.00;98504.38;5033612;28;20361;-68
2021/10/05 01:21:20;;;;;;;14.63;7.43;;;;;;;10.93;100.00;98505.22;5033112;28;20053;-68
2021/10/05 01:23:46;;;;;;;12.68;8.10;;;;;;;10.92;100.00;98495.44;5033214;28;20029;-68
2021/10/05 01:26:11;;;;;;;14.48;8.45;;;;;;;10.96;100.00;98491.28;5033263;28;20029;-68
2021/10/05 01:28:37;;;;;;;17.95;8.52;;;;;;;10.98;100.00;98494.59;5033182;28;20029;-69
2021/10/05 01:31:02;;;;;;;15.52;8.23;;;;;;;10.97;100.00;98477.50;5033207;28;20526;-68
2021/10/05 01:33:28;;;;;;;10.95;7.78;;;;;;;11.02;100.00;98479.56;5032964;28;20017;-69
2021/10/05 01:35:54;;;;;;;12.02;8.43;;;;;;;10.99;100.00;98484.59;5033168;28;20030;-69
2021/10/05 01:38:20;;;;;;;11.23;8.07;;;;;;;10.98;100.00;98483.78;5030550;28;20032;-69
2021/10/05 01:40:46;;;;;;;11.23;8.13;;;;;;;10.97;100.00;98477.50;5031115;28;20029;-69
2021/10/05 01:43:12;;;;;;;15.68;8.02;;;;;;;10.93;100.00;98478.16;5032338;28;20047;-69
2021/10/05 01:45:39;;;;;;;14.30;7.65;;;;;;;10.92;100.00;98476.50;5032453;28;20076;-69
2021/10/05 01:48:07;;;;;;;13.38;8.25;;;;;;;10.90;100.00;98468.59;5031985;28;20151;-69
2021/10/05 01:50:32;;;;;;;11.07;7.65;;;;;;;11.00;100.00;98484.38;5030851;28;20103;-69
2021/10/05 01:52:58;;;;;;;10.27;7.63;;;;;;;10.97;100.00;98460.44;5032751;28;20491;-69
2021/10/05 01:55:24;;;;;;;14.70;8.20;;;;;;;11.07;100.00;98482.47;5031231;28;20442;-68
2021/10/05 01:57:49;;;;;;;9.77;7.15;;;;;;;11.04;100.00;98480.19;5031640;28;20074;-69
2021/10/05 02:00:15;;;;;;;13.38;7.30;;;;;;;11.05;100.00;98462.06;5032149;28;20032;-69
2021/10/05 02:02:41;;;;;;;10.10;6.82;;;;;;;11.09;100.00;98471.44;5031718;28;20060;-69
2021/10/05 02:05:07;;;;;;;11.65;7.07;;;;;;;11.05;100.00;98465.59;5031813;28;20029;-68
2021/10/05 02:07:33;;;;;;;14.63;7.35;;;;;;;11.07;100.00;98460.81;5032406;28;20025;-68
2021/10/05 02:09:58;;;;;;;11.10;6.95;;;;;;;11.10;100.00;98465.78;5031598;28;20041;-69
2021/10/05 02:12:27;;;;;;;13.32;7.72;;;;;;;11.00;100.00;98443.75;5030019;28;20033;-69
2021/10/05 02:14:52;;;;;;;11.88;7.32;;;;;;;11.07;100.00;98463.53;5032479;28;20022;-68
2021/10/05 02:17:18;;;;;;;18.70;9.93;;;;;;;10.93;100.00;98449.22;5031717;28;20357;-69
2021/10/05 02:19:43;;;;;;;15.88;9.55;;;;;;;11.00;100.00;98470.00;5051155;28;20025;-69
2021/10/05 02:22:08;;;;;;;16.80;10.43;;;;;;;10.90;100.00;98454.25;5041134;28;20060;-69
2021/10/05 02:24:41;;;;;;;20.40;11.45;;;;;;;10.98;100.00;98451.28;5031977;28;20040;-69
2021/10/05 02:27:07;;;;;;;16.75;11.40;;;;;;;10.92;100.00;98457.53;5049571;28;20044;-69
2021/10/05 02:29:36;;;;;;;19.92;11.93;;;;;;;10.92;100.00;98457.53;5049619;28;20048;-69
2021/10/05 02:32:06;;;;;;;20.20;11.80;;;;;;;10.91;100.00;98453.19;5047631;28;20026;-69
2021/10/05 02:34:31;;;;;;;18.38;11.93;;;;;;;11.00;100.00;98462.72;5038523;28;20025;-68
2021/10/05 02:36:56;;;;;;;19.13;12.38;;;;;;;10.99;100.00;98457.53;5032340;28;20021;-69
2021/10/05 02:39:22;;;;;;;18.38;10.45;;;;;;;11.04;100.00;98455.00;5031502;28;20025;-69
2021/10/05 02:41:47;;;;;;;25.85;12.32;;;;;;;11.07;100.00;98451.88;5031739;28;20033;-68
2021/10/05 02:44:12;;;;;;;20.25;11.35;;;;;;;11.10;100.00;98443.31;5031962;28;20456;-68
2021/10/05 02:46:38;;;;;;;21.02;11.20;;;;;;;11.07;100.00;98449.16;5031488;28;20072;-68
2021/10/05 02:49:04;;;;;;;19.27;11.55;;;;;;;11.05;100.00;98440.41;5030108;28;20029;-68
2021/10/05 02:51:29;;;;;;;16.33;9.93;;;;;;;11.08;100.00;98446.25;5031492;28;20035;-68
2021/10/05 02:53:55;;;;;;;17.48;11.48;;;;;;;11.08;100.00;98442.69;5031796;28;20025;-68
2021/10/05 02:56:20;;;;;;;17.00;11.23;;;;;;;11.08;100.00;98439.97;5031619;28;20029;-68
2021/10/05 02:58:45;;;;;;;16.27;10.98;;;;;;;11.01;100.00;98422.97;5033891;28;20032;-68
2021/10/05 03:01:10;;;;;;;20.10;11.35;;;;;;;11.07;100.00;98433.75;5035448;28;20034;-69
2021/10/05 03:03:36;;;;;;;18.02;11.30;;;;;;;11.07;100.00;98428.31;5035625;28;20033;-68
2021/10/05 03:06:01;;;;;;;23.42;11.52;;;;;;;11.06;100.00;98421.25;5034674;28;20021;-69
2021/10/05 03:08:29;;;;;;;18.48;11.82;;;;;;;10.99;100.00;98404.22;5035101;28;20040;-68
2021/10/05 03:10:54;;;;;;;25.15;12.07;;;;;;;10.99;100.00;98396.09;5034609;28;20108;-68
2021/10/05 03:13:20;;;;;;;23.15;12.15;;;;;;;11.06;100.00;98399.59;5034379;28;20435;-68
2021/10/05 03:15:45;;;;;;;17.45;10.88;;;;;;;10.93;100.00;98391.56;5034489;28;20048;-68
2021/10/05 03:18:10;;;;;;;18.73;11.20;;;;;;;11.04;100.00;98407.09;5034586;28;20025;-69
2021/10/05 03:20:36;;;;;;;17.90;10.57;;;;;;;10.97;100.00;98406.31;5034874;28;20533;-68
2021/10/05 03:23:01;;;;;;;18.92;11.15;;;;;;;11.00;100.00;98411.28;5034971;28;20031;-68
2021/10/05 03:25:26;;;;;;;17.27;11.40;;;;;;;10.96;100.00;98399.25;5036235;28;20030;-68
2021/10/05 03:27:51;;;;;;;17.45;10.68;;;;;;;11.00;100.00;98411.28;5032742;28;20052;-69
2021/10/05 03:30:17;;;;;;;16.75;10.55;;;;;;;11.00;100.00;98405.88;5032218;28;20028;-75
2021/10/05 03:32:42;;;;;;;19.00;10.98;;;;;;;10.91;100.00;98389.06;5026375;28;20022;-68
2021/10/05 03:35:08;;;;;;;18.48;10.88;;;;;;;10.90;100.00;98387.41;5063750;23;20529;-72
2021/10/05 03:37:33;;;;;;;16.95;10.80;;;;;;;10.85;100.00;98381.81;5014921;28;20390;-71
2021/10/05 03:39:58;;;;;;;18.38;11.57;;;;;;;10.91;100.00;98390.94;5012141;28;20033;-75
2021/10/05 03:42:23;;;;;;;21.30;12.30;;;;;;;10.91;100.00;98399.88;5013268;28;20025;-74
2021/10/05 03:44:49;;;;;;;18.45;10.82;;;;;;;10.87;100.00;98384.28;5015852;28;20032;-75
2021/10/05 03:47:14;;;;;;;19.58;11.25;;;;;;;10.99;100.00;98393.38;5014691;28;20036;-76
2021/10/05 03:49:39;;;;;;;20.58;10.82;;;;;;;11.09;100.00;98404.59;5013216;28;20045;-74
2021/10/05 03:52:05;;;;;;;18.13;11.55;;;;;;;11.10;100.00;98400.00;5010160;28;20021;-75
2021/10/05 03:54:30;;;;;;;17.55;10.65;;;;;;;11.10;100.00;98400.00;5009574;28;20026;-80
2021/10/05 03:56:55;;;;;;;17.17;10.50;;;;;;;10.95;100.00;98376.75;5012574;28;20490;-76
2021/10/05 03:59:21;;;;;;;16.27;10.57;;;;;;;10.95;100.00;98376.75;5014676;28;20033;-75
2021/10/05 04:01:47;;;;;;;18.25;10.40;;;;;;;11.05;100.00;98397.94;5014507;28;20045;-76
2021/10/05 04:04:13;;;;;;;20.45;10.00;;;;;;;11.01;100.00;98390.47;5015506;28;20395;-76
2021/10/05 04:06:40;;;;;;;15.00;9.68;;;;;;;11.02;100.00;98392.94;5019406;28;20026;-77
2021/10/05 04:09:06;;;;;;;17.85;10.05;;;;;;;11.02;100.00;98398.38;5013851;28;20033;-74
2021/10/05 04:11:33;;;;;;;16.02;9.60;;;;;;;11.05;100.00;98392.50;5014176;28;20499;-75
2021/10/05 04:13:58;;;;;;;17.27;10.60;;;;;;;10.91;100.00;98382.81;5014631;28;20022;-73
2021/10/05 04:16:23;;;;;;;14.88;9.73;;;;;;;10.87;100.00;98374.31;5013380;28;20053;-76
2021/10/05 04:18:48;;;;;;;13.65;9.02;;;;;;;10.91;100.00;98388.22;5013400;28;20026;-74
2021/10/05 04:21:14;;;;;;;16.17;10.13;;;;;;;11.03;100.00;98416.28;5014264;28;20476;-75
2021/10/05 04:23:39;;;;;;;17.27;10.30;;;;;;;11.01;100.00;98404.84;5019772;28;20053;-74
2021/10/05 04:26:05;;;;;;;16.83;10.27;;;;;;;10.88;100.00;98380.53;5013856;28;20368;-77
2021/10/05 04:28:30;;;;;;;17.02;10.32;;;;;;;11.06;100.00;98407.72;5016365;28;20136;-77
2021/10/05 04:30:55;;;;;;;15.13;9.05;;;;;;;10.96;100.00;98383.00;5017842;28;20026;-75
2021/10/05 04:33:21;;;;;;;14.13;9.35;;;;;;;11.09;100.00;98399.16;5013320;28;20026;-73
2021/10/05 04:35:46;;;;;;;14.60;9.13;;;;;;;11.08;100.00;98413.75;5011561;28;20025;-73
2021/10/05 04:38:11;;;;;;;19.02;10.60;;;;;;;10.97;100.00;98417.13;5031628;28;20032;-73
2021/10/05 04:40:37;;;;;;;15.95;10.05;;;;;;;10.87;100.00;98401.38;5018573;28;20038;-74
2021/10/05 04:43:02;;;;;;;16.05;9.75;;;;;;;10.83;100.00;98391.19;5014097;28;20057;-74
2021/10/05 04:45:27;;;;;;;15.02;10.13;;;;;;;10.93;100.00;98410.50;5009626;28;20030;-74
2021/10/05 04:47:53;;;;;;;15.25;10.18;;;;;;;11.02;100.00;98408.38;5016424;28;20376;-75
2021/10/05 04:50:18;;;;;;;16.50;10.10;;;;;;;11.00;100.00;98399.63;5020525;28;20040;-71
2021/10/05 04:52:43;;;;;;;14.38;8.77;;;;;;;11.00;100.00;98384.22;5017727;28;20058;-71
2021/10/05 04:55:09;;;;;;;15.25;9.00;;;;;;;10.87;100.00;98368.91;5019215;28;20113;-69
2021/10/05 04:57:36;;;;;;;16.23;9.13;;;;;;;10.99;100.00;98387.97;5022014;28;20038;-70
2021/10/05 05:00:04;;;;;;;14.02;8.55;;;;;;;11.02;100.00;98381.31;5011402;28;20025;-69
2021/10/05 05:02:30;;;;;;;13.45;8.77;;;;;;;10.92;100.00;98360.09;5019789;28;20061;-73
2021/10/05 05:04:56;;;;;;;15.43;8.88;;;;;;;11.00;100.00;98361.72;5012136;28;20073;-72
2021/10/05 05:07:21;;;;;;;16.52;9.80;;;;;;;10.90;100.00;98340.56;5013381;28;20068;-73
2021/10/05 05:09:47;;;;;;;15.35;9.07;;;;;;;11.01;100.00;98358.81;5016431;28;20037;-74
2021/10/05 05:12:13;;;;;;;18.05;9.60;;;;;;;11.05;100.00;98346.50;5013720;28;20032;-72
2021/10/05 05:14:39;;;;;;;18.55;10.02;;;;;;;10.88;100.00;98329.13;5011619;28;20391;-73
2021/10/05 05:17:06;;;;;;;16.02;8.73;;;;;;;11.09;100.00;98360.44;5012392;28;20100;-72
2021/10/05 05:19:31;;;;;;;17.55;10.05;;;;;;;11.03;100.00;98339.63;5006797;28;20117;-73
2021/10/05 05:21:59;;;;;;;14.85;8.98;;;;;;;11.02;100.00;98338.81;5002387;28;20117;-74
2021/10/05 05:24:26;;;;;;;15.02;9.10;;;;;;;11.02;100.00;98338.00;4999169;28;20483;-74
2021/10/05 05:26:52;;;;;;;15.23;8.68;;;;;;;10.91;100.00;98325.97;5002562;28;20027;-74
2021/10/05 05:29:17;;;;;;;13.88;8.60;;;;;;;10.94;100.00;98331.78;5003142;28;20518;-72
2021/10/05 05:31:42;;;;;;;15.43;9.13;;;;;;;10.84;100.00;98325.19;5006886;28;20031;-74
2021/10/05 05:34:07;;;;;;;17.67;9.52;;;;;;;10.90;100.00;98330.56;5007872;28;20042;-74
2021/10/05 05:36:33;;;;;;;15.63;9.23;;;;;;;10.91;100.00;98332.22;5000914;28;20509;-72
2021/10/05 05:38:58;;;;;;;16.38;9.63;;;;;;;10.91;100.00;98334.94;5008409;28;20138;-74
2021/10/05 05:41:23;;;;;;;17.05;9.75;;;;;;;10.94;100.00;98329.06;4998700;28;20088;-73
2021/10/05 05:43:49;;;;;;;15.35;9.20;;;;;;;10.87;100.00;98319.34;5003460;28;20022;-73
2021/10/05 05:46:14;;;;;;;17.65;10.32;;;;;;;10.97;100.00;98327.81;5004909;28;20460;-73
2021/10/05 05:48:39;;;;;;;15.60;9.35;;;;;;;10.90;100.00;98324.34;5010666;28;20123;-74
2021/10/05 05:51:04;;;;;;;15.57;9.73;;;;;;;10.93;100.00;98340.13;5019891;28;20053;-72
2021/10/05 05:53:30;;;;;;;14.80;9.27;;;;;;;10.92;100.00;98331.16;5013839;28;20396;-74
2021/10/05 05:55:55;;;;;;;15.40;9.05;;;;;;;10.92;100.00;98324.91;5014974;28;20075;-71
2021/10/05 05:58:20;;;;;;;16.30;8.27;;;;;;;11.01;100.00;98337.16;5008848;28;20048;-73
2021/10/05 06:00:46;;;;;;;16.90;9.32;;;;;;;10.96;100.00;98335.09;5002765;28;20050;-71
2021/10/05 06:03:12;;;;;;;14.43;8.98;;;;;;;11.01;100.00;98333.63;5010037;28;20041;-71
2021/10/05 06:05:38;;;;;;;18.73;11.35;;;;;;;10.96;100.00;98324.28;5010828;28;20160;-71
2021/10/05 06:08:04;;;;;;;18.60;10.40;;;;;;;11.07;100.00;98330.03;5005227;28;20506;-71
2021/10/05 06:10:30;;;;;;;20.13;10.88;;;;;;;11.09;100.00;98334.19;5006483;28;20029;-71
2021/10/05 06:12:55;;;;;;;22.48;12.15;;;;;;;11.09;100.00;98342.31;5005870;28;20034;-72
2021/10/05 06:15:21;;;;;;;18.67;11.10;;;;;;;11.08;100.00;98331.69;5005086;28;20472;-73
2021/10/05 06:17:49;;;;;;;13.68;8.55;;;;;;;10.93;100.00;98332.00;5009571;28;20033;-70
2021/10/05 06:20:26;;;;;;;15.20;8.82;;;;;;;11.03;100.00;98324.25;5002952;28;20022;-72
2021/10/05 06:22:52;;;;;;;13.13;7.95;;;;;;;11.12;100.00;98332.94;5003030;28;20033;-72
2021/10/05 06:25:22;;;;;;;13.73;8.13;;;;;;;11.21;100.00;98330.78;5005342;28;20037;-71
2021/10/05 06:27:47;;;;;;;12.35;7.28;;;;;;;11.24;100.00;98322.22;5003169;28;20092;-73
2021/10/05 06:30:15;;;;;;;13.00;7.38;;;;;;;11.33;100.00;98318.19;5005122;28;20033;-71
2021/10/05 06:32:41;;;;;;;12.98;7.70;;;;;;;11.38;100.00;98304.81;5005727;28;20033;-71
2021/10/05 06:35:08;;;;;;;13.35;7.40;;;;;;;11.34;100.00;98300.88;5006384;28;20026;-72
2021/10/05 06:37:33;;;;;;;17.70;8.27;;;;;;;11.63;100.00;98319.22;5001944;28;20224;-72
2021/10/05 06:39:58;;;;;;;13.73;7.88;;;;;;;11.59;100.00;98288.19;5009093;28;20105;-77
2021/10/05 06:42:23;;;;;;;11.13;7.10;;;;;;;11.70;100.00;98296.63;5017293;28;20099;-71
2021/10/05 06:44:49;;;;;;;12.13;7.30;;;;;;;11.74;100.00;98293.25;5019362;28;20031;-69
2021/10/05 06:47:14;;;;;;;10.52;6.88;;;;;;;11.82;100.00;98294.84;5017811;28;20033;-69
2021/10/05 06:49:39;;;;;;;9.63;6.10;;;;;;;12.02;100.00;98290.06;5021306;28;20493;-69
2021/10/05 06:52:05;;;;;;;10.85;7.03;;;;;;;12.06;100.00;98293.16;5014989;28;20034;-68
2021/10/05 06:54:31;;;;;;;10.00;6.45;;;;;;;12.20;100.00;98296.56;5020444;28;20041;-69
2021/10/05 06:56:56;;;;;;;10.02;6.68;;;;;;;12.37;100.00;98297.59;5022375;28;20029;-74
2021/10/05 06:59:22;;;;;;;11.55;7.10;;;;;;;12.47;100.00;98302.47;5012770;28;20108;-73
2021/10/05 07:01:48;;;;;;;11.65;7.32;;;;;;;12.48;100.00;98309.56;5005130;28;20041;-74
2021/10/05 07:04:13;;;;;;;10.55;6.60;;;;;;;12.42;100.00;98308.59;5020714;28;20033;-74
2021/10/05 07:06:39;;;;;;;9.98;5.82;;;;;;;12.47;100.00;98310.63;5017989;28;20034;-78
2021/10/05 07:09:05;;;;;;;7.95;5.70;;;;;;;12.51;100.00;98298.25;5012207;28;20019;-75
2021/10/05 07:11:32;;;;;;;10.32;7.05;;;;;;;12.55;100.00;98290.47;5011240;28;20024;-76
2021/10/05 07:13:57;;;;;;;11.75;7.82;;;;;;;12.67;100.00;98297.63;5016215;28;20061;-68
2021/10/05 07:16:22;;;;;;;10.93;7.35;;;;;;;12.68;100.00;98293.88;5015666;28;20456;-69
2021/10/05 07:18:48;;;;;;;10.48;5.70;;;;;;;12.64;98.77;98275.56;5014772;28;20116;-69
2021/10/05 07:21:13;;;;;;;8.98;5.95;;;;;;;12.72;98.50;98283.38;5016367;28;20021;-71
2021/10/05 07:23:38;;;;;;;7.93;5.40;;;;;;;12.93;98.34;98279.31;5015125;28;20021;-70
2021/10/05 07:26:04;;;;;;;8.38;5.82;;;;;;;13.07;96.70;98282.66;5022630;28;20032;-71
2021/10/05 07:28:29;;;;;;;7.30;5.45;;;;;;;13.25;94.46;98260.84;5020529;28;20025;-73
2021/10/05 07:30:55;;;;;;;7.15;5.35;;;;;;;13.24;93.33;98270.06;5014095;28;20033;-72
2021/10/05 07:33:23;;;;;;;9.00;6.43;;;;;;;13.14;95.88;98278.78;5014966;28;20021;-69
2021/10/05 07:35:49;;;;;;;8.95;5.60;;;;;;;13.28;92.91;98282.16;5015063;28;20047;-68
2021/10/05 07:38:14;;;;;;;8.70;6.22;;;;;;;13.28;94.33;98273.16;5014232;28;20033;-68
2021/10/05 07:40:39;;;;;;;8.30;5.55;;;;;;;13.30;93.56;98276.47;5032222;28;20546;-73
2021/10/05 07:43:05;;;;;;;10.00;6.35;;;;;;;13.07;93.84;98274.50;5015917;28;20395;-73
2021/10/05 07:45:31;;;;;;;8.63;6.32;;;;;;;13.13;92.85;98289.91;5011772;28;20083;-68
2021/10/05 07:47:57;;;;;;;10.15;7.05;;;;;;;13.01;93.85;98286.31;5015331;28;20025;-68
2021/10/05 07:50:23;;;;;;;10.55;7.15;;;;;;;12.70;95.00;98282.78;5008910;28;20432;-75
2021/10/05 07:52:48;;;;;;;10.20;7.05;;;;;;;12.52;97.14;98272.78;5014875;28;20034;-77
2021/10/05 07:55:14;;;;;;;12.85;8.18;;;;;;;12.48;97.69;98264.28;5013001;28;20049;-68
2021/10/05 07:57:39;;;;;;;10.00;7.22;;;;;;;12.76;98.54;98270.16;5018720;28;20038;-72
2021/10/05 08:00:06;;;;;;;12.32;7.82;;;;;;;12.80;96.88;98245.03;5013975;28;20478;-75
2021/10/05 08:02:32;;;;;;;11.52;8.05;;;;;;;13.12;95.32;98277.34;5029914;28;20029;-70
2021/10/05 08:04:58;;;;;;;13.18;8.45;;;;;;;13.21;95.83;98273.25;5012657;28;20032;-68
2021/10/05 08:07:26;;;;;;;13.55;8.40;;;;;;;13.13;95.69;98269.00;4997620;28;20479;-69
2021/10/05 08:09:53;;;;;;;11.73;8.13;;;;;;;13.14;96.01;98269.81;5012107;28;20116;-68
2021/10/05 08:12:18;;;;;;;11.13;7.22;;;;;;;13.22;97.28;98276.78;5014206;28;20514;-70
2021/10/05 08:14:44;;;;;;;11.95;7.70;;;;;;;13.31;94.67;98270.81;5012629;28;20033;-70
2021/10/05 08:17:09;;;;;;;11.55;7.85;;;;;;;13.50;94.82;98276.97;5012232;28;20029;-70
2021/10/05 08:19:34;;;;;;;11.60;8.00;;;;;;;13.79;92.79;98288.00;5001690;28;20033;-70
2021/10/05 08:21:59;;;;;;;12.93;8.38;;;;;;;13.64;91.77;98274.84;5013650;28;20034;-69
2021/10/05 08:24:25;;;;;;;13.63;8.20;;;;;;;13.96;90.65;98278.06;5014300;28;20468;-71
2021/10/05 08:26:51;;;;;;;12.80;8.70;;;;;;;14.17;88.67;98279.31;5013437;28;20034;-71
2021/10/05 08:29:18;;;;;;;13.27;8.00;;;;;;;14.58;85.00;98269.28;5014087;28;20049;-68
2021/10/05 08:31:44;;;;;;;12.80;8.05;;;;;;;14.59;84.64;98281.84;5009169;28;20026;-68
2021/10/05 08:34:10;;;;;;;15.15;8.95;;;;;;;14.66;84.72;98271.63;5013020;28;20033;-69
2021/10/05 08:36:35;;;;;;;13.48;8.82;;;;;;;14.99;84.18;98286.41;5013490;28;20030;-69
2021/10/05 08:39:00;;;;;;;13.50;8.48;;;;;;;15.49;81.92;98279.34;5012616;28;20472;-70
2021/10/05 08:41:26;;;;;;;11.82;7.60;;;;;;;15.82;78.10;98277.69;5013069;28;20034;-68
2021/10/05 08:43:51;;;;;;;11.02;7.93;;;;;;;15.92;76.93;98283.31;5013577;28;20101;-68
2021/10/05 08:46:16;;;;;;;12.90;8.02;;;;;;;15.60;77.87;98269.44;5012455;28;20426;-79
2021/10/05 08:48:42;;;;;;;13.63;8.93;;;;;;;15.29;79.99;98277.09;5013156;28;20091;-77
2021/10/05 08:51:08;;;;;;;11.57;8.18;;;;;;;14.96;79.31;98267.84;5011599;28;20556;-70
2021/10/05 08:53:39;;;;;;;12.70;7.70;;;;;;;15.10;80.24;98290.97;5013117;28;20022;-71
2021/10/05 08:56:07;;;;;;;12.63;7.85;;;;;;;15.06;82.03;98297.13;5014730;28;20113;-71
2021/10/05 08:58:34;;;;;;;12.32;8.00;;;;;;;14.95;81.08;98285.22;5014934;28;20028;-72
2021/10/05 09:01:11;;;;;;;11.32;7.30;;;;;;;15.11;81.54;98289.06;5015405;28;20037;-71
2021/10/05 09:03:38;;;;;;;10.93;7.20;;;;;;;15.15;79.92;98287.50;5014152;28;20036;-70
2021/10/05 09:06:14;;;;;;;9.57;6.38;;;;;;;15.07;80.04;98293.38;5014825;28;20065;-73
2021/10/05 09:08:42;;;;;;;11.82;7.00;;;;;;;15.26;79.93;98281.16;5028038;28;20033;-76
2021/10/05 09:11:09;;;;;;;11.70;6.88;;;;;;;15.21;79.58;98283.78;5024598;28;20100;-76
2021/10/05 09:13:41;;;;;;;10.15;6.03;;;;;;;15.38;77.99;98278.38;5020064;28;20434;-76
2021/10/05 09:16:19;;;;;;;11.85;6.47;;;;;;;15.13;79.81;98287.75;5024453;28;20112;-75
2021/10/05 09:19:17;;;;;;;12.50;6.43;;;;;;;15.46;79.05;98279.84;5027549;28;20029;-76
2021/10/05 09:21:53;;;;;;;9.03;6.23;;;;;;;15.41;79.52;98283.31;5013734;28;20061;-76
2021/10/05 09:24:28;;;;;;;10.45;6.72;;;;;;;15.49;78.62;98280.19;5010323;28;20283;-72
2021/10/05 09:26:57;;;;;;;9.27;6.18;;;;;;;15.42;78.57;98284.97;5014086;28;20219;-76
2021/10/05 09:29:26;;;;;;;;;;;;;;;15.21;79.18;98282.97;5013254;28;20025;-76
2021/10/05 09:32:02;;;;;;;9.25;6.40;;;;;;;14.90;80.54;98266.06;5014860;28;19910;-73
2021/10/05 09:34:35;;;;;;;10.68;7.30;;;;;;;14.79;82.82;98291.47;5014925;28;20431;-74
2021/10/05 09:37:06;;;;;;;11.20;6.20;;;;;;;14.72;81.86;98290.78;5008530;28;20033;-75
2021/10/05 09:39:48;;;;;;;8.85;6.10;;;;;;;14.73;82.37;98284.28;5014401;28;20148;-77
2021/10/05 09:42:27;;;;;;;10.02;6.60;;;;;;;14.62;82.75;98281.34;5030113;28;20043;-76
2021/10/05 09:44:55;;;;;;;9.40;6.32;;;;;;;14.77;81.55;98282.72;5016671;28;20462;-70
2021/10/05 09:47:29;;;;;;;10.23;6.82;;;;;;;14.94;80.65;98280.88;4994344;28;20022;-74
2021/10/05 09:49:54;;;;;;;11.85;6.90;;;;;;;15.27;80.41;98260.16;5013173;28;20041;-73
2021/10/05 09:52:20;;;;;;;9.40;6.20;;;;;;;15.10;79.87;98257.44;5020421;28;20419;-75
2021/10/05 09:54:45;;;;;;;12.27;6.13;;;;;;;15.26;79.37;98263.97;5024413;28;20018;-76
2021/10/05 09:57:11;;;;;;;10.45;5.82;;;;;;;15.38;79.96;98269.34;5015185;28;20397;-77
2021/10/05 09:59:36;;;;;;;8.60;6.03;;;;;;;15.59;78.42;98240.50;5009417;28;20451;-75
2021/10/05 10:02:02;;;;;;;11.00;6.68;;;;;;;15.67;78.13;98243.66;5011501;28;20026;-76
2021/10/05 10:04:28;;;;;;;7.75;6.13;;;;;;;15.80;77.14;98226.13;5012835;28;20101;-67
2021/10/05 10:06:54;;;;;;;10.18;5.82;;;;;;;15.76;77.28;98235.88;5012446;28;20060;-68
2021/10/05 10:09:20;;;;;;;8.50;5.85;;;;;;;16.30;75.06;98241.53;5015481;28;20053;-69
2021/10/05 10:11:46;;;;;;;8.65;5.82;;;;;;;16.56;74.36;98239.09;5016101;28;20036;-69
2021/10/05 10:14:11;;;;;;;8.93;6.10;;;;;;;16.77;73.93;98238.25;5015443;28;20025;-68
2021/10/05 10:16:37;;;;;;;9.25;6.18;;;;;;;16.53;74.05;98228.66;5014695;28;20026;-68
2021/10/05 10:19:03;;;;;;;9.43;6.35;;;;;;;16.15;75.76;98212.13;5017209;28;20033;-68
2021/10/05 10:21:33;;;;;;;10.25;6.35;;;;;;;16.22;74.83;98217.41;5018578;28;20029;-68
2021/10/05 10:24:14;;;;;;;10.55;6.78;;;;;;;16.46;74.58;98222.59;4998367;28;20070;-68
2021/10/05 10:26:47;;;;;;;9.68;6.30;;;;;;;16.73;73.37;98219.88;4997732;28;20140;-68
2021/10/05 10:29:13;;;;;;;10.23;5.57;;;;;;;16.87;72.26;98210.19;5001996;28;20022;-69
2021/10/05 10:31:41;;;;;;;9.20;5.60;;;;;;;16.95;71.26;98198.81;5016779;28;20582;-68
2021/10/05 10:34:18;;;;;;;10.57;5.65;;;;;;;17.31;70.66;98224.53;5015776;28;20030;-68
2021/10/05 10:36:44;;;;;;;9.75;5.45;;;;;;;17.05;73.52;98217.19;5016832;28;20038;-69
2021/10/05 10:39:16;;;;;;;8.27;5.32;;;;;;;16.81;72.79;98209.34;5016679;28;20030;-68
2021/10/05 10:41:46;;;;;;;7.07;4.88;;;;;;;16.44;73.41;98225.56;5016596;28;20022;-68
2021/10/05 10:44:13;;;;;;;7.57;4.70;;;;;;;15.95;75.35;98214.59;5009946;28;20376;-68
2021/10/05 10:46:41;;;;;;;6.78;5.00;;;;;;;15.69;77.06;98224.31;5015748;28;20118;-71
2021/10/05 10:49:19;;;;;;;8.10;5.07;;;;;;;15.68;77.66;98233.56;5016722;28;20034;-68
2021/10/05 10:51:47;;;;;;;8.90;4.65;;;;;;;15.63;76.73;98231.56;5016731;28;20265;-68
2021/10/05 10:54:19;;;;;;;6.80;4.88;;;;;;;15.85;76.66;98228.09;5015848;28;20079;-68
2021/10/05 10:56:48;;;;;;;6.88;4.47;;;;;;;15.83;77.35;98236.53;5016768;28;20026;-68
2021/10/05 10:59:15;;;;;;;6.00;4.20;;;;;;;15.60;78.00;98234.81;5015448;28;20049;-68
2021/10/05 11:01:45;;;;;;;7.57;4.90;;;;;;;15.68;77.95;98233.56;5015108;28;20028;-68
2021/10/05 11:04:13;;;;;;;8.57;5.00;;;;;;;15.76;79.56;98230.44;5015763;28;20037;-70
2021/10/05 11:06:39;;;;;;;5.53;4.13;;;;;;;16.03;79.06;98232.44;5011650;28;20022;-68
2021/10/05 11:09:06;;;;;;;5.93;4.30;;;;;;;16.18;77.78;98224.44;5009246;28;20452;-68
2021/10/05 11:11:43;;;;;;;6.82;4.22;;;;;;;16.17;77.45;98226.34;4996733;28;20498;-68
2021/10/05 11:14:30;;;;;;;7.35;4.30;;;;;;;15.90;79.79;98225.44;5015431;28;20042;-68
2021/10/05 11:17:02;;;;;;;6.20;3.72;;;;;;;15.73;78.57;98225.47;5014503;28;20036;-68